createdAt,value
2022-12-17T00:02:37.014Z,94.60
2022-12-17T00:05:17.041Z,94.40
2022-12-17T00:07:57.255Z,94.20
2022-12-17T00:10:37.335Z,94.20
2022-12-17T00:13:17.562Z,94.20
2022-12-17T00:16:07.704Z,94.30
2022-12-17T00:18:47.933Z,94.30
2022-12-17T00:21:27.969Z,94.30
2022-12-17T00:24:08.168Z,94.20
2022-12-17T00:26:48.291Z,94.20
2022-12-17T00:29:28.552Z,94.20
2022-12-17T00:32:08.711Z,94.40
2022-12-17T00:34:58.843Z,94.40
2022-12-17T00:37:38.922Z,94.40
2022-12-17T00:40:19.158Z,94.50
2022-12-17T00:42:59.287Z,94.40
2022-12-17T00:45:39.536Z,94.40
2022-12-17T00:48:19.816Z,94.40
2022-12-17T00:51:00.369Z,94.50
2022-12-17T00:53:40.043Z,94.40
2022-12-17T00:56:20.249Z,94.50
2022-12-17T00:59:00.191Z,94.50
2022-12-17T01:01:40.752Z,94.50
2022-12-17T01:04:20.554Z,94.60
2022-12-17T01:07:00.783Z,94.70
2022-12-17T01:09:40.890Z,94.80
2022-12-17T01:12:22.119Z,94.80
2022-12-17T01:15:11.208Z,94.90
2022-12-17T01:17:51.462Z,94.90
2022-12-17T01:20:31.580Z,94.90
2022-12-17T01:23:11.758Z,94.90
2022-12-17T01:25:51.891Z,94.90
2022-12-17T01:28:42.137Z,94.90
2022-12-17T01:31:35.310Z,94.90
2022-12-17T01:34:22.523Z,94.90
2022-12-17T01:37:02.564Z,95.00
2022-12-17T01:39:42.780Z,95.10
2022-12-17T01:42:32.840Z,95.10
2022-12-17T01:45:23.084Z,95.20
2022-12-17T01:48:13.184Z,95.30
2022-12-17T01:51:03.938Z,95.10
2022-12-17T01:53:53.533Z,95.00
2022-12-17T01:56:33.844Z,94.90
2022-12-17T01:59:23.854Z,94.90
2022-12-17T02:02:04.182Z,94.90
2022-12-17T02:04:44.232Z,94.70
2022-12-17T02:08:04.478Z,94.30
2022-12-17T02:11:04.612Z,94.20
2022-12-17T02:13:55.583Z,94.10
2022-12-17T02:16:44.949Z,94.00
2022-12-17T02:19:55.122Z,93.90
2022-12-17T02:23:15.301Z,93.60
2022-12-17T02:26:05.615Z,93.40
2022-12-17T02:28:55.600Z,93.40
2022-12-17T02:31:45.913Z,93.20
2022-12-17T02:34:25.944Z,93.10
2022-12-17T02:37:06.168Z,92.90
2022-12-17T02:39:46.270Z,92.70
2022-12-17T02:42:26.613Z,92.60
2022-12-17T02:45:17.017Z,92.50
2022-12-17T02:48:07.999Z,92.30
2022-12-17T02:50:57.043Z,92.30
2022-12-17T02:53:37.948Z,92.60
2022-12-17T02:56:27.391Z,92.50
2022-12-17T02:59:07.594Z,92.50
2022-12-17T03:01:47.810Z,92.50
2022-12-17T03:04:27.895Z,92.40
2022-12-17T03:07:08.022Z,92.40
2022-12-17T03:09:48.226Z,92.40
2022-12-17T03:12:28.295Z,92.50
2022-12-17T03:15:08.547Z,92.20
2022-12-17T03:17:48.624Z,92.20
2022-12-17T03:20:28.895Z,92.10
2022-12-17T03:23:19.001Z,91.70
2022-12-17T03:25:59.181Z,91.60
2022-12-17T03:28:39.306Z,91.40
2022-12-17T03:31:24.002Z,91.30
2022-12-17T03:34:09.643Z,91.40
2022-12-17T03:36:50.121Z,91.50
2022-12-17T03:39:29.987Z,91.50
2022-12-17T03:42:11.031Z,91.40
2022-12-17T03:45:00.306Z,91.30
2022-12-17T03:47:40.584Z,91.40
2022-12-17T03:50:20.649Z,91.00
2022-12-17T03:53:00.831Z,91.10
2022-12-17T03:55:40.956Z,91.20
2022-12-17T03:58:21.647Z,91.30
2022-12-17T04:01:01.365Z,91.20
2022-12-17T04:03:41.539Z,91.20
2022-12-17T04:06:22.402Z,91.10
2022-12-17T04:09:01.737Z,91.00
2022-12-17T04:11:41.891Z,90.80
2022-12-17T04:14:22.098Z,90.50
2022-12-17T04:17:02.188Z,90.50
2022-12-17T04:19:42.426Z,90.40
2022-12-17T04:22:22.582Z,90.50
2022-12-17T04:25:02.822Z,90.30
2022-12-17T04:27:42.870Z,89.90
2022-12-17T04:30:23.033Z,89.90
2022-12-17T04:33:03.160Z,90.00
2022-12-17T04:35:43.489Z,90.20
2022-12-17T04:38:23.515Z,90.30
2022-12-17T04:41:03.710Z,90.20
2022-12-17T04:43:43.846Z,90.10
2022-12-17T04:46:24.073Z,90.20
2022-12-17T04:49:04.225Z,90.10
2022-12-17T04:51:44.371Z,89.90
2022-12-17T04:54:24.484Z,89.40
2022-12-17T04:57:04.794Z,89.00
2022-12-17T04:59:54.794Z,89.10
2022-12-17T05:02:38.299Z,89.30
2022-12-17T05:05:25.131Z,88.80
2022-12-17T05:08:16.030Z,88.20
2022-12-17T05:11:05.343Z,87.90
2022-12-17T05:13:45.448Z,88.20
2022-12-17T05:16:25.520Z,88.10
2022-12-17T05:19:05.681Z,87.90
2022-12-17T05:21:45.822Z,89.00
2022-12-17T05:24:26.299Z,88.60
2022-12-17T05:27:06.579Z,88.60
2022-12-17T05:29:47.168Z,88.20
2022-12-17T05:32:36.641Z,87.80
2022-12-17T05:35:27.115Z,87.60
2022-12-17T05:38:07.205Z,87.20
2022-12-17T05:40:47.189Z,86.10
2022-12-17T05:43:27.259Z,86.20
2022-12-17T05:46:08.232Z,85.70
2022-12-17T05:48:57.485Z,85.30
2022-12-17T05:51:39.103Z,85.70
2022-12-17T05:54:28.272Z,85.20
2022-12-17T05:57:08.061Z,83.60
2022-12-17T05:59:48.279Z,84.10
2022-12-17T06:02:42.474Z,84.20
2022-12-17T06:05:28.558Z,84.40
2022-12-17T06:08:28.810Z,83.90
2022-12-17T06:11:19.283Z,83.70
2022-12-17T06:14:02.467Z,83.70
2022-12-17T06:16:49.249Z,83.70
2022-12-17T06:19:40.095Z,83.50
2022-12-17T06:22:29.802Z,82.70
2022-12-17T06:25:23.987Z,81.70
2022-12-17T06:28:19.853Z,82.30
2022-12-17T06:31:10.027Z,82.20
2022-12-17T06:33:50.047Z,81.50
2022-12-17T06:36:30.352Z,80.60
2022-12-17T06:39:10.383Z,80.00
2022-12-17T06:41:51.418Z,80.10
2022-12-17T06:44:40.729Z,79.00
2022-12-17T06:47:20.937Z,79.20
2022-12-17T06:50:01.739Z,79.40
2022-12-17T06:52:41.295Z,79.30
2022-12-17T06:55:21.379Z,79.10
2022-12-17T06:58:01.540Z,78.20
2022-12-17T07:00:41.730Z,77.70
2022-12-17T07:03:32.486Z,77.80
2022-12-17T07:06:22.019Z,77.90
2022-12-17T07:09:02.225Z,76.00
2022-12-17T07:11:42.343Z,76.60
2022-12-17T07:14:22.521Z,77.10
2022-12-17T07:17:02.745Z,76.50
2022-12-17T07:19:43.490Z,74.60
2022-12-17T07:22:23.292Z,75.20
2022-12-17T07:25:04.324Z,74.90
2022-12-17T07:27:53.424Z,75.60
2022-12-17T07:30:33.671Z,75.70
2022-12-17T07:33:13.686Z,75.90
2022-12-17T07:35:53.926Z,77.40
2022-12-17T07:38:34.007Z,78.00
2022-12-17T07:41:14.267Z,77.70
2022-12-17T07:43:54.518Z,78.00
2022-12-17T07:46:50.531Z,78.70
2022-12-17T07:49:34.814Z,78.30
2022-12-17T07:52:14.981Z,79.00
2022-12-17T07:55:05.453Z,79.30
2022-12-17T07:57:45.568Z,79.20
2022-12-17T08:00:35.332Z,78.90
2022-12-17T08:03:15.817Z,77.60
2022-12-17T08:06:00.668Z,77.80
2022-12-17T08:08:46.603Z,77.30
2022-12-17T08:11:26.047Z,77.70
2022-12-17T08:14:06.243Z,77.80
2022-12-17T08:16:46.433Z,78.00
2022-12-17T08:19:26.570Z,78.50
2022-12-17T08:22:16.687Z,77.90
2022-12-17T08:24:56.941Z,77.50
2022-12-17T08:27:37.030Z,77.30
2022-12-17T08:30:17.195Z,77.40
2022-12-17T08:32:57.380Z,78.20
2022-12-17T08:35:37.611Z,78.70
2022-12-17T08:38:27.637Z,77.80
2022-12-17T08:41:08.015Z,77.80
2022-12-17T08:43:48.042Z,78.00
2022-12-17T08:46:28.980Z,78.30
2022-12-17T08:49:18.300Z,78.60
2022-12-17T08:51:59.319Z,78.50
2022-12-17T08:54:38.636Z,78.40
2022-12-17T08:57:30.838Z,78.20
2022-12-17T09:00:19.041Z,78.20
2022-12-17T09:02:59.927Z,78.00
2022-12-17T09:05:49.291Z,78.30
2022-12-17T09:08:29.531Z,78.10
2022-12-17T09:11:19.635Z,77.70
2022-12-17T09:13:59.998Z,77.00
2022-12-17T09:16:40.001Z,77.10
2022-12-17T09:19:30.844Z,77.70
2022-12-17T09:22:10.331Z,77.00
2022-12-17T09:24:50.520Z,76.90
2022-12-17T09:27:30.673Z,77.10
2022-12-17T09:30:10.988Z,77.10
2022-12-17T09:32:50.958Z,77.80
2022-12-17T09:35:31.266Z,77.80
2022-12-17T09:38:11.260Z,78.00
2022-12-17T09:41:01.581Z,77.90
2022-12-17T09:44:11.635Z,78.20
2022-12-17T09:47:21.942Z,78.10
2022-12-17T09:50:01.982Z,77.80
2022-12-17T09:52:52.260Z,78.30
2022-12-17T09:55:42.324Z,77.60
2022-12-17T09:58:42.603Z,78.00
2022-12-17T10:01:42.929Z,78.30
2022-12-17T10:04:33.834Z,78.00
2022-12-17T10:07:23.059Z,78.60
2022-12-17T10:10:13.279Z,78.60
2022-12-17T10:12:53.406Z,78.50
2022-12-17T10:15:40.038Z,78.40
2022-12-17T10:18:23.770Z,77.90
2022-12-17T10:21:24.250Z,77.80
2022-12-17T10:24:04.024Z,77.70
2022-12-17T10:26:54.435Z,76.90
2022-12-17T10:29:48.148Z,77.50
2022-12-17T10:32:44.614Z,77.30
2022-12-17T10:35:44.925Z,76.40
2022-12-17T10:38:35.029Z,76.00
2022-12-17T10:41:15.099Z,76.30
2022-12-17T10:43:56.283Z,76.60
2022-12-17T10:46:45.557Z,77.80
2022-12-17T10:49:35.821Z,77.10
2022-12-17T10:52:35.836Z,77.40
2022-12-17T10:55:26.762Z,78.40
2022-12-17T10:58:06.262Z,78.30
2022-12-17T11:00:56.329Z,79.10
2022-12-17T11:04:06.536Z,79.60
2022-12-17T11:07:00.730Z,79.00
2022-12-17T11:10:09.460Z,79.50
2022-12-17T11:13:17.169Z,80.40
2022-12-17T11:16:07.294Z,80.90
2022-12-17T11:19:19.532Z,81.50
2022-12-17T11:22:07.558Z,82.30
2022-12-17T11:25:20.951Z,81.70
2022-12-17T11:28:17.972Z,82.20
2022-12-17T11:31:18.154Z,82.10
2022-12-17T11:34:08.257Z,82.40
2022-12-17T11:37:09.213Z,82.80
2022-12-17T11:40:08.677Z,82.80
2022-12-17T11:43:08.918Z,83.40
2022-12-17T11:46:09.096Z,84.60
2022-12-17T11:48:59.337Z,84.20
2022-12-17T11:51:59.426Z,84.30
2022-12-17T11:55:09.554Z,84.50
2022-12-17T11:58:19.774Z,84.80
2022-12-17T12:01:30.083Z,85.50
2022-12-17T12:04:30.071Z,85.80
2022-12-17T12:07:40.280Z,86.20
2022-12-17T12:10:40.518Z,86.50
2022-12-17T12:13:40.667Z,86.80
2022-12-17T12:16:50.969Z,87.10
2022-12-17T12:19:41.615Z,86.70
2022-12-17T12:22:31.197Z,87.10
2022-12-17T12:25:41.387Z,87.20
2022-12-17T12:28:51.556Z,87.80
2022-12-17T12:32:01.866Z,88.10
2022-12-17T12:34:52.120Z,88.00
2022-12-17T12:37:43.385Z,88.00
2022-12-17T12:41:02.259Z,88.40
2022-12-17T12:43:52.688Z,88.60
2022-12-17T12:46:52.615Z,89.10
2022-12-17T12:49:52.854Z,88.90
2022-12-17T12:52:42.944Z,89.10
2022-12-17T12:55:23.212Z,89.40
2022-12-17T12:58:23.351Z,89.90
2022-12-17T13:01:13.745Z,89.90
2022-12-17T13:04:13.749Z,89.90
2022-12-17T13:06:57.281Z,89.70
2022-12-17T13:09:39.287Z,90.00
2022-12-17T13:12:43.981Z,90.00
2022-12-17T13:15:31.669Z,90.20
2022-12-17T13:18:24.189Z,90.20
2022-12-17T13:21:04.755Z,90.40
2022-12-17T13:23:37.570Z,90.60
2022-12-17T13:26:32.173Z,90.70
2022-12-17T13:29:05.940Z,90.80
2022-12-17T13:31:50.050Z,90.90
2022-12-17T13:34:47.913Z,91.10
2022-12-17T13:37:47.569Z,91.30
2022-12-17T13:40:36.566Z,91.30
2022-12-17T13:43:06.479Z,91.30
2022-12-17T13:45:40.762Z,91.30
2022-12-17T13:48:23.491Z,91.20
2022-12-17T13:51:02.575Z,91.30
2022-12-17T13:53:37.491Z,91.20
2022-12-17T13:56:07.543Z,91.20
2022-12-17T13:58:38.359Z,91.30
2022-12-17T14:01:11.433Z,91.40
2022-12-17T14:04:05.176Z,91.40
2022-12-17T14:06:40.137Z,91.40
2022-12-17T14:09:15.981Z,91.40
2022-12-17T14:11:58.739Z,91.50
2022-12-17T14:14:36.593Z,91.80
2022-12-17T14:17:07.296Z,91.90
2022-12-17T14:19:38.816Z,92.00
2022-12-17T14:22:08.913Z,92.10
2022-12-17T14:24:38.922Z,92.20
2022-12-17T14:27:24.413Z,92.30
2022-12-17T14:29:54.335Z,92.40
2022-12-17T14:32:40.722Z,92.50
2022-12-17T14:35:41.703Z,92.60
2022-12-17T14:38:37.612Z,92.70
2022-12-17T14:41:29.529Z,92.90
2022-12-17T14:44:01.953Z,92.90
2022-12-17T14:46:33.839Z,93.00
2022-12-17T14:49:07.464Z,93.20
2022-12-17T14:51:45.370Z,93.20
2022-12-17T14:54:23.668Z,93.00
2022-12-17T14:56:54.802Z,92.90
2022-12-17T14:59:42.778Z,93.10
2022-12-17T15:02:29.855Z,93.10
2022-12-17T15:05:03.924Z,93.20
2022-12-17T15:07:35.194Z,93.30
2022-12-17T15:10:13.269Z,93.40
2022-12-17T15:12:45.462Z,93.40
2022-12-17T15:15:16.880Z,93.50
2022-12-17T15:17:46.773Z,93.40
2022-12-17T15:20:23.877Z,93.30
2022-12-17T15:22:53.732Z,93.30
2022-12-17T15:25:23.557Z,93.40
2022-12-17T15:27:53.884Z,93.40
2022-12-17T15:30:23.925Z,93.40
2022-12-17T15:32:53.757Z,93.30
2022-12-17T15:35:23.857Z,93.30
2022-12-17T15:37:53.590Z,93.40
2022-12-17T15:40:24.365Z,93.40
2022-12-17T15:43:13.365Z,93.40
2022-12-17T15:45:50.192Z,93.30
2022-12-17T15:48:23.192Z,93.30
2022-12-17T15:50:53.029Z,93.30
2022-12-17T15:53:22.828Z,93.20
2022-12-17T15:55:52.749Z,93.20
2022-12-17T15:58:23.003Z,93.60
2022-12-17T16:00:52.791Z,93.50
2022-12-17T16:03:22.796Z,93.40
2022-12-17T16:05:52.714Z,93.20
2022-12-17T16:08:22.621Z,93.20
2022-12-17T16:10:54.974Z,93.30
2022-12-17T16:13:24.753Z,93.20
2022-12-17T16:16:04.221Z,93.10
2022-12-17T16:18:35.177Z,93.00
2022-12-17T16:21:08.583Z,92.80
2022-12-17T16:23:39.031Z,92.70
2022-12-17T16:26:11.731Z,92.90
2022-12-17T16:28:42.158Z,93.30
2022-12-17T16:31:18.151Z,93.00
2022-12-17T16:33:49.764Z,93.10
2022-12-17T16:36:23.291Z,93.20
2022-12-17T16:38:55.695Z,93.30
2022-12-17T16:41:25.785Z,93.30
2022-12-17T16:43:55.584Z,93.20
2022-12-17T16:46:32.802Z,93.20
2022-12-17T16:49:07.987Z,93.30
2022-12-17T16:51:37.948Z,93.40
2022-12-17T16:54:13.316Z,93.30
2022-12-17T16:56:45.510Z,93.40
2022-12-17T16:59:17.252Z,93.50
2022-12-17T17:01:49.429Z,93.50
2022-12-17T17:04:22.107Z,93.50
2022-12-17T17:06:54.749Z,93.50
2022-12-17T17:09:25.974Z,93.50
2022-12-17T17:11:58.847Z,93.50
2022-12-17T17:14:29.439Z,93.70
2022-12-17T17:16:59.423Z,93.70
2022-12-17T17:19:29.357Z,93.60
2022-12-17T17:21:59.527Z,93.60
2022-12-17T17:24:30.722Z,93.70
2022-12-17T17:27:01.620Z,93.70
2022-12-17T17:29:31.874Z,93.80
2022-12-17T17:32:10.507Z,93.60
2022-12-17T17:34:42.417Z,93.50
2022-12-17T17:37:14.620Z,93.50
2022-12-17T17:39:44.704Z,93.50
2022-12-17T17:42:14.471Z,93.50
2022-12-17T17:44:44.245Z,93.50
2022-12-17T17:47:14.442Z,93.50
2022-12-17T17:49:44.429Z,93.60
2022-12-17T17:52:14.416Z,93.60
2022-12-17T17:54:44.293Z,93.50
2022-12-17T17:57:15.074Z,93.60
2022-12-17T17:59:44.825Z,93.60
2022-12-17T18:02:14.903Z,93.70
2022-12-17T18:04:44.863Z,93.70
2022-12-17T18:07:29.795Z,93.80
2022-12-17T18:10:01.319Z,93.90
2022-12-17T18:12:42.044Z,93.90
2022-12-17T18:15:16.311Z,93.90
2022-12-17T18:17:49.425Z,93.90
2022-12-17T18:20:19.922Z,93.90
2022-12-17T18:22:50.033Z,94.00
2022-12-17T18:25:20.042Z,93.90
2022-12-17T18:27:49.927Z,93.80
2022-12-17T18:30:19.810Z,93.80
2022-12-17T18:32:53.463Z,93.90
2022-12-17T18:35:23.257Z,94.00
2022-12-17T18:37:53.128Z,93.90
2022-12-17T18:40:22.895Z,93.80
2022-12-17T18:43:03.929Z,93.80
2022-12-17T18:45:33.846Z,93.90
2022-12-17T18:48:03.640Z,94.00
2022-12-17T18:50:33.607Z,94.10
2022-12-17T18:53:03.387Z,94.10
2022-12-17T18:55:33.115Z,94.10
2022-12-17T18:58:03.371Z,94.10
2022-12-17T19:00:33.222Z,94.20
2022-12-17T19:03:05.952Z,94.20
2022-12-17T19:05:37.030Z,94.30
2022-12-17T19:08:08.399Z,94.30
2022-12-17T19:10:39.270Z,94.10
2022-12-17T19:13:09.208Z,94.10
2022-12-17T19:15:39.204Z,94.10
2022-12-17T19:18:08.933Z,94.10
2022-12-17T19:20:38.778Z,94.00
2022-12-17T19:23:08.547Z,93.90
2022-12-17T19:25:38.339Z,93.60
2022-12-17T19:28:08.202Z,93.60
2022-12-17T19:30:38.893Z,93.60
2022-12-17T19:33:08.040Z,93.70
2022-12-17T19:35:40.421Z,93.80
2022-12-17T19:38:10.213Z,94.00
2022-12-17T19:40:40.026Z,94.00
2022-12-17T19:43:09.862Z,94.10
2022-12-17T19:45:39.680Z,94.10
2022-12-17T19:48:10.402Z,94.00
2022-12-17T19:50:39.637Z,94.00
2022-12-17T19:53:09.473Z,94.00
2022-12-17T19:55:39.384Z,94.00
2022-12-17T19:58:09.153Z,94.10
2022-12-17T20:00:38.912Z,94.00
2022-12-17T20:03:08.833Z,94.20
2022-12-17T20:05:38.655Z,94.20
2022-12-17T20:08:08.762Z,94.20
2022-12-17T20:10:38.560Z,94.20
2022-12-17T20:13:08.419Z,94.10
2022-12-17T20:15:38.221Z,94.20
2022-12-17T20:18:08.186Z,94.20
2022-12-17T20:20:37.905Z,94.20
2022-12-17T20:23:07.707Z,94.30
2022-12-17T20:25:37.646Z,94.20
2022-12-17T20:28:07.501Z,94.30
2022-12-17T20:30:37.325Z,94.30
2022-12-17T20:33:07.044Z,94.20
2022-12-17T20:35:40.841Z,94.30
2022-12-17T20:38:10.851Z,94.20
2022-12-17T20:40:43.227Z,94.20
2022-12-17T20:43:13.216Z,94.30
2022-12-17T20:45:51.969Z,94.30
2022-12-17T20:48:22.359Z,94.30
2022-12-17T20:50:52.259Z,94.10
2022-12-17T20:53:22.155Z,94.10
2022-12-17T20:56:02.704Z,94.10
2022-12-17T20:58:32.557Z,94.00
2022-12-17T21:01:15.344Z,94.10
2022-12-17T21:03:45.641Z,94.10
2022-12-17T21:06:22.886Z,94.10
2022-12-17T21:08:54.565Z,94.00
2022-12-17T21:11:27.612Z,94.10
2022-12-17T21:13:58.023Z,94.10
2022-12-17T21:16:31.544Z,94.20
2022-12-17T21:19:02.696Z,94.10
2022-12-17T21:21:35.589Z,94.10
2022-12-17T21:24:06.280Z,94.10
2022-12-17T21:26:36.928Z,94.30
2022-12-17T21:29:08.765Z,94.40
2022-12-17T21:31:42.621Z,94.30
2022-12-17T21:34:18.734Z,94.20
2022-12-17T21:36:49.322Z,94.10
2022-12-17T21:39:19.816Z,94.20
2022-12-17T21:42:10.624Z,94.30
2022-12-17T21:44:39.849Z,94.30
2022-12-17T21:47:09.820Z,94.30
2022-12-17T21:49:39.710Z,94.30
2022-12-17T21:52:11.001Z,94.30
2022-12-17T21:54:41.250Z,94.20
2022-12-17T21:57:11.026Z,94.20
2022-12-17T21:59:40.779Z,94.20
2022-12-17T22:02:13.044Z,94.30
2022-12-17T22:04:43.025Z,94.30
2022-12-17T22:07:16.373Z,94.40
2022-12-17T22:10:12.593Z,94.40
2022-12-17T22:12:56.418Z,94.40
2022-12-17T22:15:30.999Z,94.40
2022-12-17T22:18:06.232Z,94.50
2022-12-17T22:20:36.133Z,94.50
2022-12-17T22:23:06.967Z,94.60
2022-12-17T22:25:40.094Z,94.60
2022-12-17T22:28:09.970Z,94.50
2022-12-17T22:30:57.459Z,94.60
2022-12-17T22:34:05.674Z,94.60
2022-12-17T22:38:29.873Z,94.60
2022-12-17T22:41:30.030Z,94.60
2022-12-17T22:44:39.224Z,94.60
2022-12-17T22:45:11.925Z,94.60
2022-12-17T22:47:42.364Z,94.60
2022-12-17T22:50:13.266Z,94.50
2022-12-17T22:52:43.698Z,94.50
2022-12-17T22:55:14.061Z,94.50
2022-12-17T22:57:44.358Z,94.40
2022-12-17T23:00:19.406Z,94.60
2022-12-17T23:02:49.390Z,94.60
2022-12-17T23:05:19.295Z,94.70
2022-12-17T23:07:49.229Z,94.80
2022-12-17T23:10:19.700Z,94.80
2022-12-17T23:12:53.753Z,94.70
2022-12-17T23:15:32.063Z,94.80
2022-12-17T23:18:03.469Z,94.90
2022-12-17T23:20:34.909Z,94.60
2022-12-17T23:23:04.888Z,94.50
2022-12-17T23:25:34.750Z,94.60
2022-12-17T23:28:04.566Z,94.50
2022-12-17T23:30:35.235Z,94.60
2022-12-17T23:33:05.311Z,94.50
2022-12-17T23:35:35.235Z,94.60
2022-12-17T23:38:04.965Z,94.60
2022-12-17T23:40:34.776Z,94.60
2022-12-17T23:43:04.622Z,94.80
2022-12-17T23:45:34.420Z,94.70
2022-12-17T23:48:04.318Z,94.80
2022-12-17T23:50:34.262Z,94.80
2022-12-17T23:53:04.375Z,94.80
2022-12-17T23:55:35.201Z,94.80
2022-12-17T23:58:04.903Z,94.60
